sensor_id;sensor_type;location;lat;lon;timestamp;P1;durP1;ratioP1;P2;durP2;ratioP2
70213;SDS011;60138;55.808;37.078;2023-04-25T00:01:42;12.52;;;5.82;;
70213;SDS011;60138;55.808;37.078;2023-04-25T00:04:08;13.27;;;6.43;;
70213;SDS011;60138;55.808;37.078;2023-04-25T00:06:34;12.68;;;6.85;;
70213;SDS011;60138;55.808;37.078;2023-04-25T00:09:00;12.37;;;6.27;;
70213;SDS011;60138;55.808;37.078;2023-04-25T00:11:26;11.68;;;6.50;;
70213;SDS011;60138;55.808;37.078;2023-04-25T00:13:51;11.80;;;6.30;;
70213;SDS011;60138;55.808;37.078;2023-04-25T00:16:17;7.57;;;5.53;;
70213;SDS011;60138;55.808;37.078;2023-04-25T00:18:43;15.27;;;6.17;;
70213;SDS011;60138;55.808;37.078;2023-04-25T00:21:08;12.05;;;6.10;;
70213;SDS011;60138;55.808;37.078;2023-04-25T00:23:34;13.40;;;7.53;;
70213;SDS011;60138;55.808;37.078;2023-04-25T00:26:00;10.25;;;5.95;;
70213;SDS011;60138;55.808;37.078;2023-04-25T00:28:25;17.30;;;7.27;;
70213;SDS011;60138;55.808;37.078;2023-04-25T00:30:51;11.50;;;6.40;;
70213;SDS011;60138;55.808;37.078;2023-04-25T00:33:17;11.10;;;6.77;;
70213;SDS011;60138;55.808;37.078;2023-04-25T00:35:43;10.43;;;6.30;;
70213;SDS011;60138;55.808;37.078;2023-04-25T00:38:10;14.15;;;6.18;;
70213;SDS011;60138;55.808;37.078;2023-04-25T00:40:35;12.17;;;6.50;;
70213;SDS011;60138;55.808;37.078;2023-04-25T00:43:01;12.05;;;6.22;;
70213;SDS011;60138;55.808;37.078;2023-04-25T00:45:28;13.47;;;6.43;;
70213;SDS011;60138;55.808;37.078;2023-04-25T00:47:54;14.68;;;7.25;;
70213;SDS011;60138;55.808;37.078;2023-04-25T00:50:20;17.77;;;6.40;;
70213;SDS011;60138;55.808;37.078;2023-04-25T00:52:45;14.27;;;7.28;;
70213;SDS011;60138;55.808;37.078;2023-04-25T00:55:11;12.37;;;6.07;;
70213;SDS011;60138;55.808;37.078;2023-04-25T00:57:38;14.20;;;7.03;;
70213;SDS011;60138;55.808;37.078;2023-04-25T01:00:04;17.48;;;6.55;;
70213;SDS011;60138;55.808;37.078;2023-04-25T01:02:31;16.73;;;7.47;;
70213;SDS011;60138;55.808;37.078;2023-04-25T01:04:58;17.70;;;6.57;;
70213;SDS011;60138;55.808;37.078;2023-04-25T01:07:25;15.63;;;6.50;;
70213;SDS011;60138;55.808;37.078;2023-04-25T01:09:53;13.25;;;6.43;;
70213;SDS011;60138;55.808;37.078;2023-04-25T01:12:19;12.00;;;6.07;;
70213;SDS011;60138;55.808;37.078;2023-04-25T01:14:45;8.57;;;6.30;;
70213;SDS011;60138;55.808;37.078;2023-04-25T01:17:12;11.88;;;7.03;;
70213;SDS011;60138;55.808;37.078;2023-04-25T01:19:38;10.88;;;6.22;;
70213;SDS011;60138;55.808;37.078;2023-04-25T01:22:04;15.80;;;7.82;;
70213;SDS011;60138;55.808;37.078;2023-04-25T01:24:33;15.83;;;7.17;;
70213;SDS011;60138;55.808;37.078;2023-04-25T01:27:00;11.68;;;7.10;;
70213;SDS011;60138;55.808;37.078;2023-04-25T01:29:26;12.13;;;6.93;;
70213;SDS011;60138;55.808;37.078;2023-04-25T01:31:53;11.60;;;5.82;;
70213;SDS011;60138;55.808;37.078;2023-04-25T01:34:19;19.67;;;8.00;;
70213;SDS011;60138;55.808;37.078;2023-04-25T01:36:47;14.10;;;6.53;;
70213;SDS011;60138;55.808;37.078;2023-04-25T01:39:15;11.88;;;7.25;;
70213;SDS011;60138;55.808;37.078;2023-04-25T01:41:43;13.48;;;6.20;;
70213;SDS011;60138;55.808;37.078;2023-04-25T01:44:11;15.63;;;6.60;;
70213;SDS011;60138;55.808;37.078;2023-04-25T01:46:37;11.18;;;6.97;;
70213;SDS011;60138;55.808;37.078;2023-04-25T01:49:04;12.83;;;7.30;;
70213;SDS011;60138;55.808;37.078;2023-04-25T01:51:30;12.70;;;7.15;;
70213;SDS011;60138;55.808;37.078;2023-04-25T01:53:56;11.80;;;6.90;;
70213;SDS011;60138;55.808;37.078;2023-04-25T01:56:22;15.65;;;7.55;;
70213;SDS011;60138;55.808;37.078;2023-04-25T01:58:48;10.40;;;6.37;;
70213;SDS011;60138;55.808;37.078;2023-04-25T02:01:29;12.15;;;7.50;;
70213;SDS011;60138;55.808;37.078;2023-04-25T02:04:11;10.15;;;6.50;;
70213;SDS011;60138;55.808;37.078;2023-04-25T02:06:39;15.02;;;7.07;;
70213;SDS011;60138;55.808;37.078;2023-04-25T02:09:06;16.83;;;6.50;;
70213;SDS011;60138;55.808;37.078;2023-04-25T02:11:31;13.07;;;6.53;;
70213;SDS011;60138;55.808;37.078;2023-04-25T02:14:17;10.57;;;6.57;;
70213;SDS011;60138;55.808;37.078;2023-04-25T02:16:58;12.52;;;7.10;;
70213;SDS011;60138;55.808;37.078;2023-04-25T02:19:24;20.98;;;8.10;;
70213;SDS011;60138;55.808;37.078;2023-04-25T02:21:49;10.93;;;7.38;;
70213;SDS011;60138;55.808;37.078;2023-04-25T02:24:15;10.30;;;6.13;;
70213;SDS011;60138;55.808;37.078;2023-04-25T02:26:41;12.90;;;6.82;;
70213;SDS011;60138;55.808;37.078;2023-04-25T02:29:08;17.40;;;7.60;;
70213;SDS011;60138;55.808;37.078;2023-04-25T02:31:34;17.60;;;6.97;;
70213;SDS011;60138;55.808;37.078;2023-04-25T02:34:00;16.13;;;8.17;;
70213;SDS011;60138;55.808;37.078;2023-04-25T02:36:27;12.23;;;6.53;;
70213;SDS011;60138;55.808;37.078;2023-04-25T02:38:53;18.00;;;7.37;;
70213;SDS011;60138;55.808;37.078;2023-04-25T02:41:20;14.18;;;6.57;;
70213;SDS011;60138;55.808;37.078;2023-04-25T02:43:47;12.98;;;7.10;;
70213;SDS011;60138;55.808;37.078;2023-04-25T02:46:12;12.15;;;6.55;;
70213;SDS011;60138;55.808;37.078;2023-04-25T02:48:39;10.30;;;7.23;;
70213;SDS011;60138;55.808;37.078;2023-04-25T02:51:04;17.17;;;6.68;;
70213;SDS011;60138;55.808;37.078;2023-04-25T02:53:30;10.40;;;6.72;;
70213;SDS011;60138;55.808;37.078;2023-04-25T02:55:56;9.97;;;6.53;;
70213;SDS011;60138;55.808;37.078;2023-04-25T02:58:22;13.82;;;7.40;;
70213;SDS011;60138;55.808;37.078;2023-04-25T03:00:50;11.35;;;6.93;;
70213;SDS011;60138;55.808;37.078;2023-04-25T03:03:16;10.70;;;6.30;;
70213;SDS011;60138;55.808;37.078;2023-04-25T03:05:42;13.32;;;6.72;;
70213;SDS011;60138;55.808;37.078;2023-04-25T03:08:09;15.73;;;7.10;;
70213;SDS011;60138;55.808;37.078;2023-04-25T03:10:36;14.03;;;6.70;;
70213;SDS011;60138;55.808;37.078;2023-04-25T03:13:05;12.90;;;7.00;;
70213;SDS011;60138;55.808;37.078;2023-04-25T03:15:31;11.93;;;7.22;;
70213;SDS011;60138;55.808;37.078;2023-04-25T03:17:56;13.40;;;6.77;;
70213;SDS011;60138;55.808;37.078;2023-04-25T03:20:23;17.70;;;7.15;;
70213;SDS011;60138;55.808;37.078;2023-04-25T03:22:48;14.75;;;6.53;;
70213;SDS011;60138;55.808;37.078;2023-04-25T03:25:14;12.70;;;6.60;;
70213;SDS011;60138;55.808;37.078;2023-04-25T03:27:41;14.90;;;7.93;;
70213;SDS011;60138;55.808;37.078;2023-04-25T03:30:07;15.80;;;7.93;;
70213;SDS011;60138;55.808;37.078;2023-04-25T03:32:34;16.93;;;7.37;;
70213;SDS011;60138;55.808;37.078;2023-04-25T03:35:00;20.98;;;8.05;;
70213;SDS011;60138;55.808;37.078;2023-04-25T03:37:31;37.92;;;9.43;;
70213;SDS011;60138;55.808;37.078;2023-04-25T03:39:56;31.05;;;9.25;;
70213;SDS011;60138;55.808;37.078;2023-04-25T03:42:26;27.53;;;9.03;;
70213;SDS011;60138;55.808;37.078;2023-04-25T03:44:52;24.33;;;7.38;;
70213;SDS011;60138;55.808;37.078;2023-04-25T03:47:18;23.10;;;8.27;;
70213;SDS011;60138;55.808;37.078;2023-04-25T03:49:45;15.82;;;7.93;;
70213;SDS011;60138;55.808;37.078;2023-04-25T03:52:11;24.23;;;8.83;;
70213;SDS011;60138;55.808;37.078;2023-04-25T03:54:39;22.00;;;6.50;;
70213;SDS011;60138;55.808;37.078;2023-04-25T03:57:15;9.70;;;4.00;;
70213;SDS011;60138;55.808;37.078;2023-04-25T03:59:42;6.75;;;3.83;;
70213;SDS011;60138;55.808;37.078;2023-04-25T04:02:10;6.63;;;3.67;;
70213;SDS011;60138;55.808;37.078;2023-04-25T04:04:36;6.75;;;3.72;;
70213;SDS011;60138;55.808;37.078;2023-04-25T04:07:02;5.35;;;3.42;;
70213;SDS011;60138;55.808;37.078;2023-04-25T04:09:31;6.95;;;3.58;;
70213;SDS011;60138;55.808;37.078;2023-04-25T04:11:59;6.85;;;4.05;;
70213;SDS011;60138;55.808;37.078;2023-04-25T04:14:25;9.32;;;5.80;;
70213;SDS011;60138;55.808;37.078;2023-04-25T04:16:51;8.77;;;5.17;;
70213;SDS011;60138;55.808;37.078;2023-04-25T04:19:17;12.73;;;5.47;;
70213;SDS011;60138;55.808;37.078;2023-04-25T04:21:50;9.55;;;6.15;;
70213;SDS011;60138;55.808;37.078;2023-04-25T04:24:15;12.40;;;5.53;;
70213;SDS011;60138;55.808;37.078;2023-04-25T04:26:52;11.50;;;5.95;;
70213;SDS011;60138;55.808;37.078;2023-04-25T04:29:50;11.05;;;5.90;;
70213;SDS011;60138;55.808;37.078;2023-04-25T04:32:24;10.68;;;5.30;;
70213;SDS011;60138;55.808;37.078;2023-04-25T04:34:51;12.48;;;5.80;;
70213;SDS011;60138;55.808;37.078;2023-04-25T04:37:18;10.77;;;5.07;;
70213;SDS011;60138;55.808;37.078;2023-04-25T04:39:44;13.40;;;6.43;;
70213;SDS011;60138;55.808;37.078;2023-04-25T04:42:33;10.73;;;6.00;;
70213;SDS011;60138;55.808;37.078;2023-04-25T04:45:22;8.88;;;5.35;;
70213;SDS011;60138;55.808;37.078;2023-04-25T04:48:06;8.02;;;4.65;;
70213;SDS011;60138;55.808;37.078;2023-04-25T04:50:32;11.33;;;4.97;;
70213;SDS011;60138;55.808;37.078;2023-04-25T04:53:17;13.60;;;5.57;;
70213;SDS011;60138;55.808;37.078;2023-04-25T04:55:54;13.75;;;5.10;;
70213;SDS011;60138;55.808;37.078;2023-04-25T04:58:27;10.65;;;5.93;;
70213;SDS011;60138;55.808;37.078;2023-04-25T05:01:21;18.13;;;5.23;;
70213;SDS011;60138;55.808;37.078;2023-04-25T05:03:55;13.70;;;5.45;;
70213;SDS011;60138;55.808;37.078;2023-04-25T05:06:54;17.33;;;6.53;;
70213;SDS011;60138;55.808;37.078;2023-04-25T05:09:39;14.98;;;5.47;;
70213;SDS011;60138;55.808;37.078;2023-04-25T05:12:10;15.93;;;5.80;;
70213;SDS011;60138;55.808;37.078;2023-04-25T05:14:56;18.53;;;5.90;;
70213;SDS011;60138;55.808;37.078;2023-04-25T05:17:41;20.60;;;5.90;;
70213;SDS011;60138;55.808;37.078;2023-04-25T05:20:27;20.20;;;6.00;;
70213;SDS011;60138;55.808;37.078;2023-04-25T05:23:11;21.08;;;5.70;;
70213;SDS011;60138;55.808;37.078;2023-04-25T05:25:51;15.80;;;5.70;;
70213;SDS011;60138;55.808;37.078;2023-04-25T05:28:37;20.43;;;5.10;;
70213;SDS011;60138;55.808;37.078;2023-04-25T05:31:32;14.52;;;5.15;;
70213;SDS011;60138;55.808;37.078;2023-04-25T05:34:07;17.25;;;5.43;;
70213;SDS011;60138;55.808;37.078;2023-04-25T05:36:43;11.85;;;4.35;;
70213;SDS011;60138;55.808;37.078;2023-04-25T05:39:09;14.93;;;5.13;;
70213;SDS011;60138;55.808;37.078;2023-04-25T05:41:53;10.48;;;5.03;;
70213;SDS011;60138;55.808;37.078;2023-04-25T05:44:51;9.40;;;4.10;;
70213;SDS011;60138;55.808;37.078;2023-04-25T05:47:35;8.98;;;4.47;;
70213;SDS011;60138;55.808;37.078;2023-04-25T05:50:08;9.43;;;4.20;;
70213;SDS011;60138;55.808;37.078;2023-04-25T05:52:47;15.10;;;4.17;;
70213;SDS011;60138;55.808;37.078;2023-04-25T05:55:36;9.80;;;4.43;;
70213;SDS011;60138;55.808;37.078;2023-04-25T05:58:17;11.02;;;3.65;;
70213;SDS011;60138;55.808;37.078;2023-04-25T06:00:43;7.68;;;4.00;;
70213;SDS011;60138;55.808;37.078;2023-04-25T06:03:08;6.03;;;3.37;;
70213;SDS011;60138;55.808;37.078;2023-04-25T06:05:34;6.85;;;3.45;;
70213;SDS011;60138;55.808;37.078;2023-04-25T06:08:00;8.60;;;3.65;;
70213;SDS011;60138;55.808;37.078;2023-04-25T06:10:25;9.00;;;3.70;;
70213;SDS011;60138;55.808;37.078;2023-04-25T06:12:52;5.00;;;2.90;;
70213;SDS011;60138;55.808;37.078;2023-04-25T06:15:19;6.85;;;3.30;;
70213;SDS011;60138;55.808;37.078;2023-04-25T06:17:46;8.20;;;3.88;;
70213;SDS011;60138;55.808;37.078;2023-04-25T06:20:11;7.10;;;3.20;;
70213;SDS011;60138;55.808;37.078;2023-04-25T06:22:39;5.15;;;3.42;;
70213;SDS011;60138;55.808;37.078;2023-04-25T06:25:04;5.97;;;3.80;;
70213;SDS011;60138;55.808;37.078;2023-04-25T06:27:32;8.47;;;4.10;;
70213;SDS011;60138;55.808;37.078;2023-04-25T06:29:58;11.48;;;5.00;;
70213;SDS011;60138;55.808;37.078;2023-04-25T06:32:24;9.18;;;4.10;;
70213;SDS011;60138;55.808;37.078;2023-04-25T06:34:50;8.63;;;3.93;;
70213;SDS011;60138;55.808;37.078;2023-04-25T06:37:15;9.68;;;3.70;;
70213;SDS011;60138;55.808;37.078;2023-04-25T06:39:41;7.30;;;3.77;;
70213;SDS011;60138;55.808;37.078;2023-04-25T06:42:07;7.88;;;3.75;;
70213;SDS011;60138;55.808;37.078;2023-04-25T06:44:51;9.43;;;5.43;;
70213;SDS011;60138;55.808;37.078;2023-04-25T06:47:18;7.50;;;4.03;;
70213;SDS011;60138;55.808;37.078;2023-04-25T06:49:43;9.55;;;4.20;;
70213;SDS011;60138;55.808;37.078;2023-04-25T06:52:10;10.05;;;4.28;;
70213;SDS011;60138;55.808;37.078;2023-04-25T06:54:37;10.20;;;4.00;;
70213;SDS011;60138;55.808;37.078;2023-04-25T06:57:15;13.38;;;4.00;;
70213;SDS011;60138;55.808;37.078;2023-04-25T06:59:41;13.45;;;5.22;;
70213;SDS011;60138;55.808;37.078;2023-04-25T07:02:07;10.57;;;4.88;;
70213;SDS011;60138;55.808;37.078;2023-04-25T07:04:33;8.47;;;4.53;;
70213;SDS011;60138;55.808;37.078;2023-04-25T07:07:00;7.38;;;4.43;;
70213;SDS011;60138;55.808;37.078;2023-04-25T07:09:33;10.15;;;4.55;;
70213;SDS011;60138;55.808;37.078;2023-04-25T07:11:59;10.80;;;4.23;;
70213;SDS011;60138;55.808;37.078;2023-04-25T07:14:25;11.40;;;4.20;;
70213;SDS011;60138;55.808;37.078;2023-04-25T07:16:51;11.38;;;4.18;;
70213;SDS011;60138;55.808;37.078;2023-04-25T07:19:18;8.75;;;3.47;;
70213;SDS011;60138;55.808;37.078;2023-04-25T07:21:44;7.43;;;4.30;;
70213;SDS011;60138;55.808;37.078;2023-04-25T07:24:11;7.80;;;3.88;;
70213;SDS011;60138;55.808;37.078;2023-04-25T07:26:40;9.30;;;3.85;;
70213;SDS011;60138;55.808;37.078;2023-04-25T07:29:41;12.00;;;4.57;;
70213;SDS011;60138;55.808;37.078;2023-04-25T07:32:07;11.90;;;4.00;;
70213;SDS011;60138;55.808;37.078;2023-04-25T07:34:33;14.07;;;5.65;;
70213;SDS011;60138;55.808;37.078;2023-04-25T07:36:59;8.30;;;3.97;;
70213;SDS011;60138;55.808;37.078;2023-04-25T07:39:29;9.05;;;4.22;;
70213;SDS011;60138;55.808;37.078;2023-04-25T07:41:55;7.73;;;3.40;;
70213;SDS011;60138;55.808;37.078;2023-04-25T07:44:24;9.20;;;3.83;;
70213;SDS011;60138;55.808;37.078;2023-04-25T07:46:50;11.15;;;3.80;;
70213;SDS011;60138;55.808;37.078;2023-04-25T07:49:16;6.80;;;3.05;;
70213;SDS011;60138;55.808;37.078;2023-04-25T07:51:43;11.07;;;4.00;;
70213;SDS011;60138;55.808;37.078;2023-04-25T07:54:14;9.73;;;3.40;;
70213;SDS011;60138;55.808;37.078;2023-04-25T07:56:45;13.88;;;4.10;;
70213;SDS011;60138;55.808;37.078;2023-04-25T07:59:11;7.05;;;3.33;;
70213;SDS011;60138;55.808;37.078;2023-04-25T08:01:39;9.52;;;4.13;;
70213;SDS011;60138;55.808;37.078;2023-04-25T08:04:06;8.15;;;3.92;;
70213;SDS011;60138;55.808;37.078;2023-04-25T08:06:52;6.27;;;3.07;;
70213;SDS011;60138;55.808;37.078;2023-04-25T08:09:23;9.02;;;3.50;;
70213;SDS011;60138;55.808;37.078;2023-04-25T08:11:48;9.15;;;3.25;;
70213;SDS011;60138;55.808;37.078;2023-04-25T08:14:16;11.55;;;3.40;;
70213;SDS011;60138;55.808;37.078;2023-04-25T08:16:43;13.03;;;3.83;;
70213;SDS011;60138;55.808;37.078;2023-04-25T08:19:09;8.52;;;3.80;;
70213;SDS011;60138;55.808;37.078;2023-04-25T08:21:35;10.32;;;4.07;;
70213;SDS011;60138;55.808;37.078;2023-04-25T08:24:05;10.57;;;3.55;;
70213;SDS011;60138;55.808;37.078;2023-04-25T08:26:35;12.00;;;4.57;;
70213;SDS011;60138;55.808;37.078;2023-04-25T08:29:01;8.47;;;3.97;;
70213;SDS011;60138;55.808;37.078;2023-04-25T08:31:27;8.95;;;4.05;;
70213;SDS011;60138;55.808;37.078;2023-04-25T08:33:58;10.18;;;4.28;;
70213;SDS011;60138;55.808;37.078;2023-04-25T08:36:38;10.25;;;3.72;;
70213;SDS011;60138;55.808;37.078;2023-04-25T08:39:05;13.35;;;4.28;;
70213;SDS011;60138;55.808;37.078;2023-04-25T08:41:37;10.27;;;3.60;;
70213;SDS011;60138;55.808;37.078;2023-04-25T08:44:05;10.82;;;3.58;;
70213;SDS011;60138;55.808;37.078;2023-04-25T08:46:40;12.95;;;3.63;;
70213;SDS011;60138;55.808;37.078;2023-04-25T08:49:22;10.45;;;4.45;;
70213;SDS011;60138;55.808;37.078;2023-04-25T08:51:48;12.35;;;4.55;;
70213;SDS011;60138;55.808;37.078;2023-04-25T08:54:17;7.97;;;3.37;;
70213;SDS011;60138;55.808;37.078;2023-04-25T08:56:46;8.63;;;3.40;;
70213;SDS011;60138;55.808;37.078;2023-04-25T08:59:13;9.90;;;3.90;;
70213;SDS011;60138;55.808;37.078;2023-04-25T09:01:40;9.52;;;4.28;;
70213;SDS011;60138;55.808;37.078;2023-04-25T09:04:06;13.23;;;3.97;;
70213;SDS011;60138;55.808;37.078;2023-04-25T09:06:33;11.30;;;4.13;;
70213;SDS011;60138;55.808;37.078;2023-04-25T09:09:06;16.13;;;4.43;;
70213;SDS011;60138;55.808;37.078;2023-04-25T09:11:34;9.80;;;4.20;;
70213;SDS011;60138;55.808;37.078;2023-04-25T09:14:16;11.30;;;4.72;;
70213;SDS011;60138;55.808;37.078;2023-04-25T09:16:59;9.23;;;4.28;;
70213;SDS011;60138;55.808;37.078;2023-04-25T09:19:40;12.23;;;4.87;;
70213;SDS011;60138;55.808;37.078;2023-04-25T09:22:14;12.80;;;4.35;;
70213;SDS011;60138;55.808;37.078;2023-04-25T09:24:43;9.02;;;4.35;;
70213;SDS011;60138;55.808;37.078;2023-04-25T09:27:11;15.50;;;4.50;;
70213;SDS011;60138;55.808;37.078;2023-04-25T09:29:39;12.38;;;4.05;;
70213;SDS011;60138;55.808;37.078;2023-04-25T09:34:42;15.10;;;5.20;;
70213;SDS011;60138;55.808;37.078;2023-04-25T09:37:10;15.00;;;4.55;;
70213;SDS011;60138;55.808;37.078;2023-04-25T09:39:56;13.40;;;4.03;;
70213;SDS011;60138;55.808;37.078;2023-04-25T09:42:27;6.85;;;3.60;;
70213;SDS011;60138;55.808;37.078;2023-04-25T09:44:54;17.23;;;4.03;;
70213;SDS011;60138;55.808;37.078;2023-04-25T09:47:22;8.73;;;3.58;;
70213;SDS011;60138;55.808;37.078;2023-04-25T09:49:49;9.38;;;4.15;;
70213;SDS011;60138;55.808;37.078;2023-04-25T09:52:17;11.05;;;4.25;;
70213;SDS011;60138;55.808;37.078;2023-04-25T09:55:05;12.30;;;3.90;;
70213;SDS011;60138;55.808;37.078;2023-04-25T09:57:33;7.63;;;3.80;;
70213;SDS011;60138;55.808;37.078;2023-04-25T10:00:01;12.15;;;3.30;;
70213;SDS011;60138;55.808;37.078;2023-04-25T10:02:42;14.15;;;3.63;;
70213;SDS011;60138;55.808;37.078;2023-04-25T10:05:14;9.10;;;3.67;;
70213;SDS011;60138;55.808;37.078;2023-04-25T10:07:40;12.25;;;4.38;;
70213;SDS011;60138;55.808;37.078;2023-04-25T10:10:14;7.50;;;3.53;;
70213;SDS011;60138;55.808;37.078;2023-04-25T10:12:40;11.63;;;4.13;;
70213;SDS011;60138;55.808;37.078;2023-04-25T10:15:07;6.63;;;3.67;;
70213;SDS011;60138;55.808;37.078;2023-04-25T10:17:34;6.43;;;3.40;;
70213;SDS011;60138;55.808;37.078;2023-04-25T10:20:04;6.55;;;3.63;;
70213;SDS011;60138;55.808;37.078;2023-04-25T10:22:32;8.77;;;3.67;;
70213;SDS011;60138;55.808;37.078;2023-04-25T10:25:01;14.63;;;3.75;;
70213;SDS011;60138;55.808;37.078;2023-04-25T10:27:28;11.10;;;3.83;;
70213;SDS011;60138;55.808;37.078;2023-04-25T10:30:05;11.55;;;3.65;;
70213;SDS011;60138;55.808;37.078;2023-04-25T10:32:32;10.23;;;3.20;;
70213;SDS011;60138;55.808;37.078;2023-04-25T10:35:02;8.40;;;3.27;;
70213;SDS011;60138;55.808;37.078;2023-04-25T10:37:36;11.10;;;3.47;;
70213;SDS011;60138;55.808;37.078;2023-04-25T10:40:08;9.85;;;3.42;;
70213;SDS011;60138;55.808;37.078;2023-04-25T10:42:34;6.57;;;2.90;;
70213;SDS011;60138;55.808;37.078;2023-04-25T10:45:01;6.87;;;2.87;;
70213;SDS011;60138;55.808;37.078;2023-04-25T10:47:35;7.13;;;2.50;;
70213;SDS011;60138;55.808;37.078;2023-04-25T10:50:06;12.77;;;3.33;;
70213;SDS011;60138;55.808;37.078;2023-04-25T10:52:33;6.88;;;3.10;;
70213;SDS011;60138;55.808;37.078;2023-04-25T10:54:59;6.83;;;2.60;;
70213;SDS011;60138;55.808;37.078;2023-04-25T11:00:09;7.68;;;3.20;;
70213;SDS011;60138;55.808;37.078;2023-04-25T11:02:42;10.32;;;2.60;;
70213;SDS011;60138;55.808;37.078;2023-04-25T11:05:09;8.00;;;2.90;;
70213;SDS011;60138;55.808;37.078;2023-04-25T11:07:39;8.98;;;2.50;;
70213;SDS011;60138;55.808;37.078;2023-04-25T11:10:19;26.52;;;3.00;;
70213;SDS011;60138;55.808;37.078;2023-04-25T11:12:46;11.82;;;3.33;;
70213;SDS011;60138;55.808;37.078;2023-04-25T11:15:11;7.18;;;2.60;;
70213;SDS011;60138;55.808;37.078;2023-04-25T11:17:38;4.83;;;2.60;;
70213;SDS011;60138;55.808;37.078;2023-04-25T11:20:04;9.25;;;2.95;;
70213;SDS011;60138;55.808;37.078;2023-04-25T11:22:31;11.18;;;2.35;;
70213;SDS011;60138;55.808;37.078;2023-04-25T11:24:57;8.07;;;2.87;;
70213;SDS011;60138;55.808;37.078;2023-04-25T11:27:22;7.18;;;2.70;;
70213;SDS011;60138;55.808;37.078;2023-04-25T11:29:48;10.23;;;3.13;;
70213;SDS011;60138;55.808;37.078;2023-04-25T11:32:15;14.20;;;2.90;;
70213;SDS011;60138;55.808;37.078;2023-04-25T11:34:42;9.20;;;2.78;;
70213;SDS011;60138;55.808;37.078;2023-04-25T11:37:09;10.10;;;3.20;;
70213;SDS011;60138;55.808;37.078;2023-04-25T11:39:35;10.23;;;3.27;;
70213;SDS011;60138;55.808;37.078;2023-04-25T11:42:01;10.15;;;2.95;;
70213;SDS011;60138;55.808;37.078;2023-04-25T11:44:29;8.02;;;3.22;;
70213;SDS011;60138;55.808;37.078;2023-04-25T11:46:55;8.15;;;3.20;;
70213;SDS011;60138;55.808;37.078;2023-04-25T11:49:21;7.67;;;3.33;;
70213;SDS011;60138;55.808;37.078;2023-04-25T11:51:47;10.37;;;2.97;;
70213;SDS011;60138;55.808;37.078;2023-04-25T11:54:13;7.10;;;2.67;;
70213;SDS011;60138;55.808;37.078;2023-04-25T11:56:46;8.93;;;2.88;;
70213;SDS011;60138;55.808;37.078;2023-04-25T11:59:12;9.50;;;2.60;;
70213;SDS011;60138;55.808;37.078;2023-04-25T12:01:39;10.30;;;3.08;;
70213;SDS011;60138;55.808;37.078;2023-04-25T12:04:17;8.83;;;2.90;;
70213;SDS011;60138;55.808;37.078;2023-04-25T12:06:46;14.75;;;2.97;;
70213;SDS011;60138;55.808;37.078;2023-04-25T12:09:13;7.90;;;2.38;;
70213;SDS011;60138;55.808;37.078;2023-04-25T12:11:42;7.82;;;3.17;;
70213;SDS011;60138;55.808;37.078;2023-04-25T12:14:12;13.25;;;2.67;;
70213;SDS011;60138;55.808;37.078;2023-04-25T12:16:46;4.93;;;2.13;;
70213;SDS011;60138;55.808;37.078;2023-04-25T12:19:15;6.72;;;2.70;;
70213;SDS011;60138;55.808;37.078;2023-04-25T12:21:41;6.38;;;2.55;;
70213;SDS011;60138;55.808;37.078;2023-04-25T12:24:09;9.73;;;2.80;;
70213;SDS011;60138;55.808;37.078;2023-04-25T12:29:24;10.37;;;2.80;;
70213;SDS011;60138;55.808;37.078;2023-04-25T12:31:51;6.03;;;2.90;;
70213;SDS011;60138;55.808;37.078;2023-04-25T12:34:22;6.50;;;2.40;;
70213;SDS011;60138;55.808;37.078;2023-04-25T12:36:49;5.82;;;2.30;;
70213;SDS011;60138;55.808;37.078;2023-04-25T12:39:16;6.22;;;2.60;;
70213;SDS011;60138;55.808;37.078;2023-04-25T12:41:46;5.23;;;2.57;;
70213;SDS011;60138;55.808;37.078;2023-04-25T12:44:12;10.07;;;2.88;;
70213;SDS011;60138;55.808;37.078;2023-04-25T12:46:38;9.15;;;2.50;;
70213;SDS011;60138;55.808;37.078;2023-04-25T12:49:05;4.65;;;1.85;;
70213;SDS011;60138;55.808;37.078;2023-04-25T12:51:30;7.77;;;2.57;;
70213;SDS011;60138;55.808;37.078;2023-04-25T12:53:56;11.10;;;2.60;;
70213;SDS011;60138;55.808;37.078;2023-04-25T12:56:22;6.97;;;2.53;;
70213;SDS011;60138;55.808;37.078;2023-04-25T12:58:47;10.68;;;2.47;;
70213;SDS011;60138;55.808;37.078;2023-04-25T13:01:14;13.17;;;2.83;;
70213;SDS011;60138;55.808;37.078;2023-04-25T13:03:39;6.90;;;2.63;;
70213;SDS011;60138;55.808;37.078;2023-04-25T13:06:06;6.50;;;2.08;;
70213;SDS011;60138;55.808;37.078;2023-04-25T13:08:32;9.05;;;2.22;;
70213;SDS011;60138;55.808;37.078;2023-04-25T13:10:58;5.70;;;2.37;;
70213;SDS011;60138;55.808;37.078;2023-04-25T13:13:24;6.88;;;2.63;;
70213;SDS011;60138;55.808;37.078;2023-04-25T13:15:50;9.48;;;2.45;;
70213;SDS011;60138;55.808;37.078;2023-04-25T13:18:15;5.53;;;2.27;;
70213;SDS011;60138;55.808;37.078;2023-04-25T13:20:41;6.60;;;2.07;;
70213;SDS011;60138;55.808;37.078;2023-04-25T13:23:07;7.77;;;2.30;;
70213;SDS011;60138;55.808;37.078;2023-04-25T13:25:32;7.47;;;2.35;;
70213;SDS011;60138;55.808;37.078;2023-04-25T13:27:58;9.33;;;2.43;;
70213;SDS011;60138;55.808;37.078;2023-04-25T13:30:24;10.68;;;2.30;;
70213;SDS011;60138;55.808;37.078;2023-04-25T13:32:49;12.33;;;2.13;;
70213;SDS011;60138;55.808;37.078;2023-04-25T13:35:16;5.97;;;2.10;;
70213;SDS011;60138;55.808;37.078;2023-04-25T13:37:42;5.80;;;1.83;;
70213;SDS011;60138;55.808;37.078;2023-04-25T13:40:09;7.90;;;2.03;;
70213;SDS011;60138;55.808;37.078;2023-04-25T13:42:36;4.50;;;1.70;;
70213;SDS011;60138;55.808;37.078;2023-04-25T13:45:03;4.90;;;2.07;;
70213;SDS011;60138;55.808;37.078;2023-04-25T13:47:33;8.30;;;1.98;;
70213;SDS011;60138;55.808;37.078;2023-04-25T13:49:59;6.50;;;2.20;;
70213;SDS011;60138;55.808;37.078;2023-04-25T13:52:25;6.67;;;2.07;;
70213;SDS011;60138;55.808;37.078;2023-04-25T13:54:50;9.67;;;2.10;;
70213;SDS011;60138;55.808;37.078;2023-04-25T13:57:17;10.23;;;1.95;;
70213;SDS011;60138;55.808;37.078;2023-04-25T13:59:43;6.47;;;2.03;;
70213;SDS011;60138;55.808;37.078;2023-04-25T14:02:09;9.05;;;1.92;;
70213;SDS011;60138;55.808;37.078;2023-04-25T14:04:35;6.97;;;2.27;;
70213;SDS011;60138;55.808;37.078;2023-04-25T14:07:00;11.27;;;2.17;;
70213;SDS011;60138;55.808;37.078;2023-04-25T14:09:27;7.22;;;2.22;;
70213;SDS011;60138;55.808;37.078;2023-04-25T14:11:53;10.13;;;1.75;;
70213;SDS011;60138;55.808;37.078;2023-04-25T14:14:20;5.05;;;1.52;;
70213;SDS011;60138;55.808;37.078;2023-04-25T14:16:46;7.67;;;2.03;;
70213;SDS011;60138;55.808;37.078;2023-04-25T14:19:12;6.78;;;1.95;;
70213;SDS011;60138;55.808;37.078;2023-04-25T14:21:38;4.57;;;1.83;;
70213;SDS011;60138;55.808;37.078;2023-04-25T14:24:04;9.00;;;2.03;;
70213;SDS011;60138;55.808;37.078;2023-04-25T14:26:30;9.13;;;2.07;;
70213;SDS011;60138;55.808;37.078;2023-04-25T14:28:55;6.80;;;2.00;;
70213;SDS011;60138;55.808;37.078;2023-04-25T14:31:21;7.93;;;2.20;;
70213;SDS011;60138;55.808;37.078;2023-04-25T14:33:47;5.83;;;2.07;;
70213;SDS011;60138;55.808;37.078;2023-04-25T14:36:13;7.70;;;2.13;;
70213;SDS011;60138;55.808;37.078;2023-04-25T14:38:38;8.98;;;2.22;;
70213;SDS011;60138;55.808;37.078;2023-04-25T14:41:04;6.37;;;1.90;;
70213;SDS011;60138;55.808;37.078;2023-04-25T14:43:30;10.63;;;2.00;;
70213;SDS011;60138;55.808;37.078;2023-04-25T14:45:56;8.07;;;1.97;;